createdAt,value
2023-06-11T00:00:51.830Z,20.30
2023-06-11T00:03:42.271Z,20.40
2023-06-11T00:06:30.547Z,20.30
2023-06-11T00:09:18.712Z,20.20
2023-06-11T00:12:07.215Z,20.20
2023-06-11T00:14:54.899Z,20.10
2023-06-11T00:17:42.846Z,20.10
2023-06-11T00:20:31.380Z,20.10
2023-06-11T00:23:19.283Z,20.10
2023-06-11T00:26:08.139Z,20.10
2023-06-11T00:28:56.058Z,20.20
2023-06-11T00:31:43.917Z,20.30
2023-06-11T00:34:31.685Z,20.40
2023-06-11T00:37:19.344Z,20.40
2023-06-11T00:40:07.669Z,20.20
2023-06-11T00:42:55.686Z,20.30
2023-06-11T00:45:43.483Z,20.30
2023-06-11T00:48:31.216Z,20.30
2023-06-11T00:51:22.225Z,20.30
2023-06-11T00:54:13.863Z,20.20
2023-06-11T00:57:02.485Z,20.10
2023-06-11T00:59:51.825Z,20.00
2023-06-11T01:02:58.781Z,20.00
2023-06-11T01:05:52.992Z,19.90
2023-06-11T01:08:40.782Z,19.70
2023-06-11T01:11:29.304Z,19.80
2023-06-11T01:14:18.851Z,19.80
2023-06-11T01:17:16.910Z,19.70
2023-06-11T01:20:26.687Z,19.90
2023-06-11T01:23:32.757Z,20.00
2023-06-11T01:26:33.216Z,19.80
2023-06-11T01:29:23.187Z,19.70
2023-06-11T01:32:10.942Z,19.80
2023-06-11T01:35:03.008Z,19.80
2023-06-11T01:37:56.761Z,19.80
2023-06-11T01:40:44.485Z,19.90
2023-06-11T01:43:32.243Z,19.90
2023-06-11T01:46:19.932Z,20.00
2023-06-11T01:49:07.584Z,20.00
2023-06-11T01:51:56.449Z,19.90
2023-06-11T01:54:44.458Z,19.80
2023-06-11T01:57:33.499Z,19.80
2023-06-11T02:00:21.281Z,19.70
2023-06-11T02:03:10.030Z,19.60
2023-06-11T02:05:57.778Z,19.50
2023-06-11T02:08:45.422Z,19.40
2023-06-11T02:11:33.154Z,19.50
2023-06-11T02:14:20.791Z,19.50
2023-06-11T02:17:08.549Z,19.50
2023-06-11T02:19:56.199Z,19.50
2023-06-11T02:22:43.912Z,19.40
2023-06-11T02:25:31.617Z,19.30
2023-06-11T02:28:19.266Z,19.30
2023-06-11T02:31:06.888Z,19.30
2023-06-11T02:33:54.419Z,19.20
2023-06-11T02:36:42.138Z,19.20
2023-06-11T02:39:30.980Z,19.10
2023-06-11T02:42:18.672Z,19.00
2023-06-11T02:45:07.076Z,18.80
2023-06-11T02:47:54.728Z,18.80
2023-06-11T02:50:42.354Z,18.70
2023-06-11T02:53:29.919Z,18.50
2023-06-11T02:56:17.632Z,18.50
2023-06-11T02:59:05.426Z,18.50
2023-06-11T03:01:54.770Z,18.40
2023-06-11T03:04:42.909Z,18.50
2023-06-11T03:07:30.530Z,18.50
2023-06-11T03:10:18.248Z,18.50
2023-06-11T03:13:05.897Z,18.50
2023-06-11T03:15:53.570Z,18.50
2023-06-11T03:18:41.205Z,18.40
2023-06-11T03:21:28.852Z,18.40
2023-06-11T03:24:16.435Z,18.30
2023-06-11T03:27:04.302Z,18.30
2023-06-11T03:29:52.180Z,18.30
2023-06-11T03:32:40.941Z,18.40
2023-06-11T03:35:28.607Z,18.40
2023-06-11T03:38:16.202Z,18.40
2023-06-11T03:41:03.849Z,18.40
2023-06-11T03:43:51.394Z,18.30
2023-06-11T03:46:38.985Z,18.40
2023-06-11T03:49:26.717Z,18.40
2023-06-11T03:52:14.256Z,18.50
2023-06-11T03:55:01.785Z,18.40
2023-06-11T03:57:49.565Z,18.40
2023-06-11T04:00:37.192Z,18.50
2023-06-11T04:03:25.047Z,18.60
2023-06-11T04:06:12.773Z,18.80
2023-06-11T04:09:00.391Z,19.00
2023-06-11T04:11:47.928Z,19.10
2023-06-11T04:14:35.692Z,19.40
2023-06-11T04:17:23.591Z,20.10
2023-06-11T04:20:12.063Z,20.80
2023-06-11T04:22:59.750Z,21.30
2023-06-11T04:25:50.276Z,21.80
2023-06-11T04:28:38.915Z,22.00
2023-06-11T04:31:31.950Z,22.40
2023-06-11T04:34:30.249Z,23.20
2023-06-11T04:37:20.918Z,23.00
2023-06-11T04:40:12.144Z,22.20
2023-06-11T04:43:00.207Z,21.80
2023-06-11T04:45:50.891Z,21.70
2023-06-11T04:48:39.916Z,21.60
2023-06-11T04:51:34.466Z,21.50
2023-06-11T04:54:22.868Z,21.50
2023-06-11T04:57:10.696Z,21.70
2023-06-11T05:00:00.489Z,21.90
2023-06-11T05:02:55.132Z,22.10
2023-06-11T05:05:51.383Z,21.90
2023-06-11T05:08:46.765Z,22.00
2023-06-11T05:11:44.291Z,22.30
2023-06-11T05:14:47.464Z,23.00
2023-06-11T05:17:37.633Z,24.30
2023-06-11T05:20:32.498Z,25.20
2023-06-11T05:23:29.754Z,26.40
2023-06-11T05:26:32.945Z,27.00
2023-06-11T05:29:24.437Z,28.00
2023-06-11T05:32:16.552Z,27.70
2023-06-11T05:35:04.782Z,27.90
2023-06-11T05:37:56.579Z,28.10
2023-06-11T05:40:46.806Z,28.50
2023-06-11T05:43:36.962Z,28.60
2023-06-11T05:46:30.141Z,28.90
2023-06-11T05:49:20.531Z,29.10
2023-06-11T05:52:08.526Z,29.60
2023-06-11T05:54:58.518Z,29.50
2023-06-11T05:57:50.812Z,28.80
2023-06-11T06:00:44.178Z,29.30
2023-06-11T06:03:36.914Z,29.50
2023-06-11T06:06:27.364Z,29.60
2023-06-11T06:09:19.116Z,29.70
2023-06-11T06:12:09.738Z,29.60
2023-06-11T06:15:01.189Z,30.20
2023-06-11T06:17:59.552Z,29.50
2023-06-11T06:20:48.563Z,29.70
2023-06-11T06:23:38.619Z,29.80
2023-06-11T06:26:30.900Z,29.90
2023-06-11T06:29:23.291Z,28.60
2023-06-11T06:32:13.273Z,29.30
2023-06-11T06:35:05.308Z,30.20
2023-06-11T06:37:55.450Z,30.80
2023-06-11T06:40:44.866Z,31.20
2023-06-11T06:43:34.530Z,30.10
2023-06-11T06:46:22.487Z,30.20
2023-06-11T06:49:12.642Z,30.40
2023-06-11T06:52:03.231Z,29.70
2023-06-11T06:54:53.582Z,31.10
2023-06-11T06:57:43.438Z,31.70
2023-06-11T07:00:33.982Z,31.90
2023-06-11T07:03:24.255Z,31.40
2023-06-11T07:06:20.639Z,30.60
2023-06-11T07:09:12.146Z,29.10
2023-06-11T07:12:02.429Z,29.90
2023-06-11T07:14:51.914Z,31.30
2023-06-11T07:17:42.063Z,30.00
2023-06-11T07:20:32.298Z,30.90
2023-06-11T07:23:23.065Z,32.20
2023-06-11T07:26:15.268Z,33.10
2023-06-11T07:29:05.605Z,33.10
2023-06-11T07:31:55.825Z,34.10
2023-06-11T07:34:49.528Z,33.60
2023-06-11T07:37:38.704Z,34.40
2023-06-11T07:40:28.406Z,34.00
2023-06-11T07:43:20.315Z,34.60
2023-06-11T07:46:11.393Z,35.40
2023-06-11T07:49:05.023Z,35.20
2023-06-11T07:51:53.234Z,36.40
2023-06-11T07:54:43.702Z,36.30
2023-06-11T07:57:34.056Z,35.60
2023-06-11T08:00:25.697Z,35.00
2023-06-11T08:03:15.982Z,32.40
2023-06-11T08:06:03.930Z,33.20
2023-06-11T08:08:57.893Z,33.60
2023-06-11T08:11:48.105Z,32.50
2023-06-11T08:14:38.246Z,33.10
2023-06-11T08:17:28.785Z,32.40
2023-06-11T08:20:19.693Z,33.60
2023-06-11T08:23:09.851Z,32.80
2023-06-11T08:26:00.428Z,32.90
2023-06-11T08:28:52.363Z,35.30
2023-06-11T08:31:41.478Z,36.40
2023-06-11T08:34:31.940Z,37.20
2023-06-11T08:37:22.445Z,35.30
2023-06-11T08:40:11.493Z,34.40
2023-06-11T08:43:01.568Z,33.70
2023-06-11T08:45:50.842Z,34.70
2023-06-11T08:48:45.130Z,33.90
2023-06-11T08:51:39.683Z,34.90
2023-06-11T08:54:30.295Z,35.30
2023-06-11T08:57:23.601Z,36.20
2023-06-11T09:00:15.843Z,37.10
2023-06-11T09:03:09.464Z,36.30
2023-06-11T09:06:00.285Z,38.10
2023-06-11T09:09:05.429Z,38.10
2023-06-11T09:11:56.256Z,37.10
2023-06-11T09:14:56.727Z,37.60
2023-06-11T09:17:49.337Z,37.20
2023-06-11T09:20:39.450Z,35.70
2023-06-11T09:23:31.711Z,34.10
2023-06-11T09:26:22.397Z,35.30
2023-06-11T09:29:12.414Z,32.00
2023-06-11T09:32:23.214Z,32.50
2023-06-11T09:35:21.256Z,32.40
2023-06-11T09:38:16.878Z,32.60
2023-06-11T09:41:09.677Z,34.30
2023-06-11T09:44:01.772Z,33.30
2023-06-11T09:46:52.070Z,33.30
2023-06-11T09:49:44.181Z,33.30
2023-06-11T09:52:35.515Z,33.10
2023-06-11T09:55:27.488Z,33.30
2023-06-11T09:58:23.603Z,32.50
2023-06-11T10:01:17.319Z,33.40
2023-06-11T10:04:05.505Z,33.90
2023-06-11T10:06:56.056Z,32.90
2023-06-11T10:09:48.158Z,33.60
2023-06-11T10:12:40.859Z,33.60
2023-06-11T10:15:33.564Z,33.20
2023-06-11T10:18:29.228Z,33.50
2023-06-11T10:21:19.780Z,31.20
2023-06-11T10:24:09.190Z,31.90
2023-06-11T10:27:14.063Z,34.60
2023-06-11T10:30:04.137Z,33.80
2023-06-11T10:32:52.285Z,33.60
2023-06-11T10:35:47.594Z,31.70
2023-06-11T10:38:40.677Z,32.60
2023-06-11T10:41:32.940Z,33.10
2023-06-11T10:44:26.731Z,34.80
2023-06-11T10:47:18.926Z,35.90
2023-06-11T10:50:11.782Z,34.70
2023-06-11T10:53:04.598Z,35.30
2023-06-11T10:55:56.898Z,35.30
2023-06-11T10:58:52.282Z,34.20
2023-06-11T11:01:42.347Z,35.50
2023-06-11T11:04:31.212Z,36.30
2023-06-11T11:07:34.978Z,36.90
2023-06-11T11:10:29.720Z,36.50
2023-06-11T11:13:19.889Z,35.80
2023-06-11T11:16:13.605Z,35.70
2023-06-11T11:19:09.380Z,34.50
2023-06-11T11:22:05.051Z,34.60
2023-06-11T11:24:54.968Z,33.20
2023-06-11T11:27:44.972Z,32.80
2023-06-11T11:30:35.183Z,34.20
2023-06-11T11:33:25.571Z,34.30
2023-06-11T11:36:17.784Z,34.20
2023-06-11T11:39:15.255Z,34.90
2023-06-11T11:42:04.952Z,35.10
2023-06-11T11:45:10.222Z,36.00
2023-06-11T11:48:05.299Z,36.20
2023-06-11T11:51:07.830Z,33.80
2023-06-11T11:53:59.576Z,33.00
2023-06-11T11:57:04.513Z,35.20
2023-06-11T11:59:55.340Z,36.50
2023-06-11T12:02:48.518Z,34.30
2023-06-11T12:05:42.248Z,35.10
2023-06-11T12:08:34.426Z,35.90
2023-06-11T12:11:25.472Z,34.40
2023-06-11T12:14:17.282Z,33.90
2023-06-11T12:17:11.296Z,35.10
2023-06-11T12:20:08.925Z,34.70
2023-06-11T12:23:02.701Z,33.80
2023-06-11T12:25:52.548Z,35.10
2023-06-11T12:28:42.592Z,37.00
2023-06-11T12:31:34.449Z,37.90
2023-06-11T12:34:24.107Z,36.20
2023-06-11T12:37:16.146Z,34.20
2023-06-11T12:40:07.122Z,36.60
2023-06-11T12:42:59.448Z,36.80
2023-06-11T12:45:49.363Z,38.20
2023-06-11T12:48:42.073Z,38.30
2023-06-11T12:51:31.355Z,38.00
2023-06-11T12:54:24.866Z,36.00
2023-06-11T12:57:13.594Z,34.80
2023-06-11T13:00:04.766Z,35.70
2023-06-11T13:02:53.902Z,37.10
2023-06-11T13:05:47.414Z,37.30
2023-06-11T13:08:37.931Z,37.60
2023-06-11T13:11:33.342Z,37.10
2023-06-11T13:14:27.135Z,36.60
2023-06-11T13:17:17.189Z,36.30
2023-06-11T13:20:05.138Z,37.30
2023-06-11T13:22:54.072Z,36.60
2023-06-11T13:25:46.719Z,35.80
2023-06-11T13:28:43.065Z,35.70
2023-06-11T13:31:35.324Z,37.00
2023-06-11T13:34:29.093Z,37.60
2023-06-11T13:37:19.708Z,37.60
2023-06-11T13:40:12.095Z,36.60
2023-06-11T13:43:01.304Z,35.70
2023-06-11T13:45:54.564Z,33.50
2023-06-11T13:48:47.289Z,33.50
2023-06-11T13:51:38.073Z,35.20
2023-06-11T13:54:29.460Z,35.20
2023-06-11T14:00:29.850Z,34.90
2023-06-11T14:03:21.916Z,34.80
2023-06-11T14:06:14.085Z,35.10
2023-06-11T14:09:04.170Z,35.10
2023-06-11T14:11:57.800Z,36.20
2023-06-11T14:14:48.118Z,36.60
2023-06-11T14:17:44.231Z,37.00
2023-06-11T14:20:36.490Z,34.40
2023-06-11T14:23:27.119Z,34.50
2023-06-11T14:26:22.267Z,36.00
2023-06-11T14:29:16.190Z,36.60
2023-06-11T14:32:10.558Z,38.10
2023-06-11T14:35:05.719Z,37.10
2023-06-11T14:37:59.456Z,36.40
2023-06-11T14:40:54.960Z,36.20
2023-06-11T14:43:44.221Z,36.50
2023-06-11T14:46:34.612Z,36.90
2023-06-11T14:49:28.269Z,36.50
2023-06-11T14:52:17.904Z,36.40
2023-06-11T14:55:06.002Z,37.00
2023-06-11T14:57:57.543Z,36.40
2023-06-11T15:00:47.449Z,36.10
2023-06-11T15:03:39.835Z,37.30
2023-06-11T15:06:34.658Z,36.40
2023-06-11T15:09:24.035Z,35.00
2023-06-11T15:12:15.311Z,33.20
2023-06-11T15:15:07.855Z,34.00
2023-06-11T15:18:00.128Z,35.20
2023-06-11T15:20:50.848Z,36.00
2023-06-11T15:23:42.992Z,35.70
2023-06-11T15:26:34.678Z,35.70
2023-06-11T15:29:24.955Z,36.00
2023-06-11T15:32:20.941Z,35.80
2023-06-11T15:35:12.489Z,35.70
2023-06-11T15:38:02.152Z,35.80
2023-06-11T15:40:54.054Z,35.10
2023-06-11T15:43:44.296Z,36.30
2023-06-11T15:46:35.794Z,36.10
2023-06-11T15:49:25.501Z,36.60
2023-06-11T15:52:15.558Z,37.00
2023-06-11T15:55:05.432Z,36.70
2023-06-11T15:57:58.531Z,34.60
2023-06-11T16:00:49.007Z,33.60
2023-06-11T16:03:56.640Z,34.20
2023-06-11T16:07:08.834Z,34.90
2023-06-11T16:09:58.971Z,34.70
2023-06-11T16:12:49.240Z,33.50
2023-06-11T16:15:48.312Z,32.90
2023-06-11T16:18:41.022Z,33.20
2023-06-11T16:21:36.193Z,33.00
2023-06-11T16:24:26.833Z,32.10
2023-06-11T16:27:18.486Z,31.80
2023-06-11T16:30:06.603Z,32.20
2023-06-11T16:32:57.472Z,32.30
2023-06-11T16:35:48.226Z,32.80
2023-06-11T16:38:38.101Z,33.40
2023-06-11T16:41:30.276Z,33.50
2023-06-11T16:44:22.161Z,33.80
2023-06-11T16:47:12.503Z,34.20
2023-06-11T16:50:01.847Z,34.00
2023-06-11T16:52:54.167Z,33.30
2023-06-11T16:55:45.213Z,33.20
2023-06-11T16:58:37.761Z,33.50
2023-06-11T17:01:27.557Z,33.50
2023-06-11T17:04:19.405Z,33.80
2023-06-11T17:07:08.423Z,34.20
2023-06-11T17:09:58.280Z,33.60
2023-06-11T17:12:48.562Z,33.70
2023-06-11T17:15:39.183Z,33.90
2023-06-11T17:18:29.046Z,33.30
2023-06-11T17:21:20.275Z,33.00
2023-06-11T17:24:16.095Z,32.70
2023-06-11T17:27:07.317Z,32.70
2023-06-11T17:30:00.350Z,32.50
2023-06-11T17:32:50.612Z,32.70
2023-06-11T17:35:42.295Z,32.70
2023-06-11T17:38:32.188Z,32.60
2023-06-11T17:41:24.869Z,32.70
2023-06-11T17:44:18.485Z,32.70
2023-06-11T17:47:07.240Z,32.10
2023-06-11T17:49:57.687Z,32.10
2023-06-11T17:52:48.295Z,32.40
2023-06-11T17:55:39.992Z,32.20
2023-06-11T17:58:30.183Z,31.70
2023-06-11T18:01:22.502Z,31.70
2023-06-11T18:04:15.156Z,31.70
2023-06-11T18:07:05.271Z,31.70
2023-06-11T18:09:55.499Z,31.50
2023-06-11T18:12:47.743Z,31.40
2023-06-11T18:15:42.108Z,30.90
2023-06-11T18:18:34.722Z,30.90
2023-06-11T18:21:29.754Z,30.70
2023-06-11T18:24:21.263Z,30.60
2023-06-11T18:27:12.897Z,30.30
2023-06-11T18:30:01.973Z,29.70
2023-06-11T18:32:53.832Z,29.40
2023-06-11T18:35:44.286Z,29.20
2023-06-11T18:38:33.394Z,29.10
2023-06-11T18:41:23.183Z,28.90
2023-06-11T18:44:13.526Z,28.80
2023-06-11T18:47:03.860Z,28.50
2023-06-11T18:49:53.858Z,28.20
2023-06-11T18:52:43.733Z,28.00
2023-06-11T18:55:37.017Z,27.80
2023-06-11T18:58:26.807Z,27.70
2023-06-11T19:01:17.693Z,27.60
2023-06-11T19:04:07.239Z,27.30
2023-06-11T19:06:56.474Z,26.80
2023-06-11T19:09:50.155Z,26.50
2023-06-11T19:12:40.257Z,26.30
2023-06-11T19:15:30.671Z,26.00
2023-06-11T19:18:21.053Z,25.50
2023-06-11T19:21:10.120Z,25.20
2023-06-11T19:24:00.237Z,25.00
2023-06-11T19:26:51.859Z,24.90
2023-06-11T19:29:44.371Z,24.80
2023-06-11T19:32:34.757Z,24.60
2023-06-11T19:35:24.540Z,24.60
2023-06-11T19:38:15.156Z,24.40
2023-06-11T19:41:05.678Z,24.30
2023-06-11T19:43:57.160Z,24.10
2023-06-11T19:46:47.225Z,24.00
2023-06-11T19:49:40.061Z,23.70
2023-06-11T19:52:30.757Z,23.50
2023-06-11T19:55:25.702Z,23.50
2023-06-11T19:58:15.209Z,23.50
2023-06-11T20:01:05.633Z,23.30
2023-06-11T20:03:55.875Z,23.20
2023-06-11T20:06:48.437Z,23.10
2023-06-11T20:09:40.512Z,22.90
2023-06-11T20:12:29.496Z,22.90
2023-06-11T20:15:19.768Z,22.80
2023-06-11T20:18:09.931Z,22.70
2023-06-11T20:21:02.038Z,22.60
2023-06-11T20:23:52.664Z,22.60
2023-06-11T20:26:41.807Z,22.50
2023-06-11T20:29:32.118Z,22.40
2023-06-11T20:32:23.117Z,22.40
2023-06-11T20:35:13.357Z,22.30
2023-06-11T20:38:05.317Z,22.20
2023-06-11T20:40:53.156Z,22.10
2023-06-11T20:43:40.892Z,22.00
2023-06-11T20:46:29.844Z,21.90
2023-06-11T20:49:17.854Z,21.80
2023-06-11T20:52:06.127Z,21.80
2023-06-11T20:54:54.390Z,21.70
2023-06-11T20:57:42.167Z,21.60
2023-06-11T21:00:32.779Z,21.60
2023-06-11T21:03:21.664Z,21.60
2023-06-11T21:06:11.205Z,21.60
2023-06-11T21:08:59.059Z,21.50
2023-06-11T21:11:49.446Z,21.40
2023-06-11T21:14:37.384Z,21.40
2023-06-11T21:17:28.010Z,21.40
2023-06-11T21:20:16.392Z,21.40
2023-06-11T21:23:04.126Z,21.30
2023-06-11T21:25:51.884Z,21.20
2023-06-11T21:28:40.746Z,21.20
2023-06-11T21:31:30.979Z,21.20
2023-06-11T21:34:18.868Z,21.20
2023-06-11T21:37:06.941Z,21.10
2023-06-11T21:39:55.659Z,21.10
2023-06-11T21:42:44.589Z,20.90
2023-06-11T21:45:32.364Z,20.90
2023-06-11T21:48:22.681Z,20.90
2023-06-11T21:51:10.589Z,20.90
2023-06-11T21:53:58.211Z,20.80
2023-06-11T21:56:45.918Z,20.80
2023-06-11T21:59:33.896Z,20.70
2023-06-11T22:02:21.658Z,20.70
2023-06-11T22:05:10.579Z,20.70
2023-06-11T22:08:01.410Z,20.50
2023-06-11T22:10:49.452Z,20.50
2023-06-11T22:13:40.255Z,20.50
2023-06-11T22:16:29.053Z,20.40
2023-06-11T22:19:16.910Z,20.40
2023-06-11T22:22:11.743Z,20.30
2023-06-11T22:25:00.752Z,20.30
2023-06-11T22:27:49.246Z,20.10
2023-06-11T22:30:48.104Z,20.00
2023-06-11T22:33:47.300Z,20.10
2023-06-11T22:36:34.981Z,20.10
2023-06-11T22:39:22.705Z,20.10
2023-06-11T22:42:11.779Z,20.00
2023-06-11T22:44:59.519Z,19.80
2023-06-11T22:47:51.574Z,19.90
2023-06-11T22:50:39.442Z,19.90
2023-06-11T22:53:29.082Z,19.80
2023-06-11T22:56:17.124Z,19.70
2023-06-11T22:59:04.832Z,19.70
2023-06-11T23:01:53.155Z,19.70
2023-06-11T23:04:42.252Z,19.80
2023-06-11T23:07:30.007Z,19.70
2023-06-11T23:10:18.172Z,19.60
2023-06-11T23:13:05.898Z,19.40
2023-06-11T23:15:53.709Z,19.60
2023-06-11T23:18:43.284Z,19.50
2023-06-11T23:21:31.230Z,19.50
2023-06-11T23:24:19.143Z,19.50
2023-06-11T23:27:07.008Z,19.40
2023-06-11T23:29:55.030Z,19.30
2023-06-11T23:32:44.396Z,19.20
2023-06-11T23:35:32.073Z,19.10
2023-06-11T23:38:19.757Z,19.10
2023-06-11T23:41:07.851Z,19.10
2023-06-11T23:43:55.704Z,19.10
2023-06-11T23:46:45.450Z,18.90
2023-06-11T23:49:33.246Z,19.00
2023-06-11T23:52:20.898Z,19.00
2023-06-11T23:55:08.838Z,18.90
2023-06-11T23:58:19.317Z,18.90
